Time;durP1;ratioP1;P1;durP2;ratioP2;P2;SDS_P1;SDS_P2;PMS_P1;PMS_P2;Temp;Humidity;BMP_temperature;BMP_pressure;BME280_temperature;BME280_humidity;BME280_pressure;Samples;Min_cycle;Max_cycle;Signal;HPM_P1;HPM_P2
2022/12/21 00:01:30;;;;;;;34.90;26.70;;;;;;;;;;5075334;28;20737;-71
2022/12/21 00:04:00;;;;;;;39.93;29.80;;;;;;;;;;5075760;28;20188;-69
2022/12/21 00:06:27;;;;;;;42.03;30.37;;;;;;;;;;5075434;28;20259;-70
2022/12/21 00:08:54;;;;;;;42.33;30.57;;;;;;;;;;5093981;28;20181;-71
2022/12/21 00:11:21;;;;;;;42.80;30.60;;;;;;;;;;5075213;28;20205;-71
2022/12/21 00:13:47;;;;;;;42.73;29.53;;;;;;;;;;5095723;28;20530;-70
2022/12/21 00:16:14;;;;;;;36.10;26.53;;;;;;;;;;5095537;28;20180;-69
2022/12/21 00:18:40;;;;;;;37.47;27.13;;;;;;;;;;5075586;28;20202;-69
2022/12/21 00:21:14;;;;;;;40.97;29.60;;;;;;;;;;5075324;28;20296;-69
2022/12/21 00:23:41;;;;;;;40.80;30.07;;;;;;;;;;5093490;28;20204;-69
2022/12/21 00:26:07;;;;;;;37.37;26.80;;;;;;;;;;5093557;28;20177;-70
2022/12/21 00:28:33;;;;;;;40.53;28.17;;;;;;;;;;5093337;28;20184;-69
2022/12/21 00:31:05;;;;;;;37.27;28.40;;;;;;;;;;5093239;28;20219;-69
2022/12/21 00:33:32;;;;;;;39.23;26.60;;;;;;;;;;5093472;28;20181;-70
2022/12/21 00:35:58;;;;;;;39.40;27.77;;;;;;;;;;5075523;28;20550;-70
2022/12/21 00:38:25;;;;;;;40.60;28.13;;;;;;;;;;5075065;28;20184;-70
2022/12/21 00:40:56;;;;;;;41.10;27.93;;;;;;;;;;5075515;28;20197;-70
2022/12/21 00:43:22;;;;;;;42.30;27.90;;;;;;;;;;5093488;28;20170;-71
2022/12/21 00:45:47;;;;;;;39.57;28.50;;;;;;;;;;5093392;28;20649;-70
2022/12/21 00:48:13;;;;;;;47.53;29.67;;;;;;;;;;5095515;28;20177;-70
2022/12/21 00:50:39;;;;;;;38.13;27.30;;;;;;;;;;5097333;28;20618;-70
2022/12/21 00:53:05;;;;;;;44.40;28.13;;;;;;;;;;5078940;28;20664;-70
2022/12/21 00:55:31;;;;;;;43.33;31.07;;;;;;;;;;5097159;28;20177;-70
2022/12/21 00:58:00;;;;;;;39.87;27.67;;;;;;;;;;5097298;28;20211;-69
2022/12/21 01:00:27;;;;;;;42.70;28.13;;;;;;;;;;5097065;28;20177;-70
2022/12/21 01:02:53;;;;;;;42.10;28.17;;;;;;;;;;5097371;28;20230;-71
2022/12/21 01:05:19;;;;;;;39.63;27.67;;;;;;;;;;5096834;28;20598;-71
2022/12/21 01:07:45;;;;;;;40.30;28.07;;;;;;;;;;5099959;28;20177;-70
2022/12/21 01:10:11;;;;;;;42.93;27.40;;;;;;;;;;5078983;28;20659;-70
2022/12/21 01:12:37;;;;;;;40.93;27.83;;;;;;;;;;5078715;28;20198;-70
2022/12/21 01:15:03;;;;;;;45.93;29.57;;;;;;;;;;5096977;28;20179;-70
2022/12/21 01:17:29;;;;;;;48.73;28.27;;;;;;;;;;5096634;28;20252;-70
2022/12/21 01:19:55;;;;;;;47.03;28.67;;;;;;;;;;5096877;28;20213;-70
2022/12/21 01:22:21;;;;;;;40.63;27.87;;;;;;;;;;5096704;28;20254;-70
2022/12/21 01:24:48;;;;;;;44.80;29.80;;;;;;;;;;5096587;28;20184;-70
2022/12/21 01:27:14;;;;;;;48.17;30.60;;;;;;;;;;5078619;28;20184;-70
2022/12/21 01:29:40;;;;;;;51.47;30.97;;;;;;;;;;5096721;28;20744;-69
2022/12/21 01:32:06;;;;;;;52.67;31.07;;;;;;;;;;5078131;28;20235;-70
2022/12/21 01:34:32;;;;;;;52.83;31.23;;;;;;;;;;5078225;28;20177;-70
2022/12/21 01:36:58;;;;;;;54.70;32.13;;;;;;;;;;5096423;28;20185;-70
2022/12/21 01:39:24;;;;;;;61.70;32.57;;;;;;;;;;5078117;28;20200;-70
2022/12/21 01:41:50;;;;;;;59.03;33.20;;;;;;;;;;5078268;28;20688;-70
2022/12/21 01:44:35;;;;;;;60.00;32.90;;;;;;;;;;5096059;28;20182;-70
2022/12/21 01:47:01;;;;;;;59.37;31.83;;;;;;;;;;5096635;28;20652;-70
2022/12/21 01:49:31;;;;;;;59.53;32.43;;;;;;;;;;5096247;28;20173;-70
2022/12/21 01:52:08;;;;;;;62.50;32.03;;;;;;;;;;5096282;28;20213;-70
2022/12/21 01:54:38;;;;;;;60.23;31.13;;;;;;;;;;5096384;28;20169;-70
2022/12/21 01:57:05;;;;;;;72.57;33.47;;;;;;;;;;5096322;28;20250;-70
2022/12/21 01:59:37;;;;;;;69.77;32.17;;;;;;;;;;5096630;28;20531;-70
2022/12/21 02:02:08;;;;;;;65.90;34.00;;;;;;;;;;5077889;28;20216;-70
2022/12/21 02:04:34;;;;;;;64.03;33.03;;;;;;;;;;5077795;28;20181;-69
2022/12/21 02:07:00;;;;;;;67.77;35.00;;;;;;;;;;5077643;28;20233;-70
2022/12/21 02:09:28;;;;;;;75.10;33.83;;;;;;;;;;5077440;28;20648;-71
2022/12/21 02:11:55;;;;;;;64.57;34.63;;;;;;;;;;5077518;28;20288;-70
2022/12/21 02:14:21;;;;;;;68.53;32.90;;;;;;;;;;5095611;28;20275;-70
2022/12/21 02:16:50;;;;;;;69.53;35.30;;;;;;;;;;5095980;28;20181;-70
2022/12/21 02:19:31;;;;;;;73.70;35.77;;;;;;;;;;5095431;28;20182;-70
2022/12/21 02:21:59;;;;;;;73.13;34.77;;;;;;;;;;5095218;28;20592;-71
2022/12/21 02:24:40;;;;;;;86.27;35.97;;;;;;;;;;5095212;28;20647;-70
2022/12/21 02:27:11;;;;;;;71.53;33.93;;;;;;;;;;5077084;28;20212;-70
2022/12/21 02:29:56;;;;;;;81.37;34.83;;;;;;;;;;5077442;28;20598;-70
2022/12/21 02:32:42;;;;;;;74.93;33.90;;;;;;;;;;5095176;28;20196;-70
2022/12/21 02:35:13;;;;;;;102.60;34.57;;;;;;;;;;5077063;28;20614;-70
2022/12/21 02:37:42;;;;;;;100.23;35.47;;;;;;;;;;5095381;28;20173;-70
2022/12/21 02:40:14;;;;;;;83.20;35.27;;;;;;;;;;5076783;28;20242;-70
2022/12/21 02:45:29;;;;;;;79.03;34.83;;;;;;;;;;5095937;28;20260;-70
2022/12/21 02:48:01;;;;;;;87.60;33.20;;;;;;;;;;5077802;28;20213;-70
2022/12/21 02:50:30;;;;;;;71.47;33.77;;;;;;;;;;5077528;28;20219;-70
2022/12/21 02:52:58;;;;;;;77.40;34.83;;;;;;;;;;5085419;28;20662;-70
2022/12/21 02:55:26;;;;;;;85.50;35.60;;;;;;;;;;5095433;28;20180;-70
2022/12/21 02:58:10;;;;;;;100.97;38.13;;;;;;;;;;5076605;28;20558;-71
2022/12/21 03:00:37;;;;;;;76.90;35.17;;;;;;;;;;5094752;28;20192;-71
2022/12/21 03:06:10;;;;;;;82.40;36.63;;;;;;;;;;5094857;28;20540;-70
2022/12/21 03:08:44;;;;;;;81.40;36.53;;;;;;;;;;5094643;28;20544;-70
2022/12/21 03:11:10;;;;;;;86.37;36.83;;;;;;;;;;5094187;28;20215;-71
2022/12/21 03:13:42;;;;;;;85.57;37.27;;;;;;;;;;5076058;28;20264;-70
2022/12/21 03:16:27;;;;;;;85.87;36.20;;;;;;;;;;5076168;28;20165;-70
2022/12/21 03:18:56;;;;;;;90.03;37.53;;;;;;;;;;5094718;28;20230;-70
2022/12/21 03:21:25;;;;;;;90.20;36.40;;;;;;;;;;5076020;28;20288;-70
2022/12/21 03:23:56;;;;;;;99.83;37.47;;;;;;;;;;5094223;28;20184;-70
2022/12/21 03:26:31;;;;;;;91.00;36.90;;;;;;;;;;5076364;28;20547;-70
2022/12/21 03:28:58;;;;;;;95.47;37.37;;;;;;;;;;5076107;28;20180;-70
2022/12/21 03:31:27;;;;;;;91.23;35.30;;;;;;;;;;5093910;28;20212;-71
2022/12/21 03:34:08;;;;;;;80.73;33.93;;;;;;;;;;5075971;28;20172;-70
2022/12/21 03:36:38;;;;;;;84.40;34.80;;;;;;;;;;5094116;28;20164;-70
2022/12/21 03:39:07;;;;;;;89.47;35.47;;;;;;;;;;5094167;28;20629;-70
2022/12/21 03:41:40;;;;;;;95.93;36.53;;;;;;;;;;5093902;28;20246;-71
2022/12/21 03:44:09;;;;;;;92.17;36.27;;;;;;;;;;5095254;28;20222;-72
2022/12/21 03:46:38;;;;;;;95.97;35.53;;;;;;;;;;5094366;28;20176;-70
2022/12/21 03:49:09;;;;;;;94.67;35.40;;;;;;;;;;5075796;28;20568;-70
2022/12/21 03:51:35;;;;;;;89.20;35.97;;;;;;;;;;5093678;28;20209;-70
2022/12/21 03:54:14;;;;;;;88.20;35.57;;;;;;;;;;5093997;28;20181;-70
2022/12/21 03:56:41;;;;;;;94.87;36.30;;;;;;;;;;5093895;28;20256;-70
2022/12/21 03:59:07;;;;;;;95.13;35.73;;;;;;;;;;5093936;28;20306;-70
2022/12/21 04:01:40;;;;;;;113.37;38.77;;;;;;;;;;5093617;28;20703;-71
2022/12/21 04:04:14;;;;;;;101.63;38.33;;;;;;;;;;5075388;28;20724;-71
2022/12/21 04:06:41;;;;;;;123.93;39.27;;;;;;;;;;5093551;28;20161;-70
2022/12/21 04:09:07;;;;;;;103.00;38.43;;;;;;;;;;5093553;28;20574;-70
2022/12/21 04:14:19;;;;;;;113.47;39.17;;;;;;;;;;5093813;28;20307;-70
2022/12/21 04:16:45;;;;;;;113.70;38.20;;;;;;;;;;5093754;28;20200;-70
2022/12/21 04:21:55;;;;;;;117.53;38.97;;;;;;;;;;5093672;28;20212;-70
2022/12/21 04:29:50;;;;;;;196.77;37.87;;;;;;;;;;5098135;28;20207;-70
2022/12/21 04:32:16;;;;;;;155.57;37.27;;;;;;;;;;5097451;28;20197;-70
2022/12/21 04:34:42;;;;;;;103.80;36.40;;;;;;;;;;5079530;28;20229;-70
2022/12/21 04:39:52;;;;;;;110.43;37.33;;;;;;;;;;5098838;28;20180;-70
2022/12/21 04:42:18;;;;;;;108.33;36.83;;;;;;;;;;5098152;28;20193;-70
2022/12/21 04:44:44;;;;;;;117.77;37.17;;;;;;;;;;5103164;28;20177;-70
2022/12/21 04:47:11;;;;;;;116.20;36.40;;;;;;;;;;5085236;28;20181;-70
2022/12/21 04:49:37;;;;;;;109.97;36.63;;;;;;;;;;5105488;28;20211;-70
2022/12/21 04:52:03;;;;;;;117.10;37.13;;;;;;;;;;5101051;28;20279;-70
2022/12/21 04:54:29;;;;;;;132.77;39.20;;;;;;;;;;5099056;28;20169;-72
2022/12/21 04:56:55;;;;;;;116.47;37.57;;;;;;;;;;5097394;28;20644;-70
2022/12/21 04:59:21;;;;;;;113.17;38.60;;;;;;;;;;5078606;28;20663;-70
2022/12/21 05:01:47;;;;;;;119.83;39.23;;;;;;;;;;5078743;28;20299;-70
2022/12/21 05:04:13;;;;;;;122.33;39.57;;;;;;;;;;5078613;28;20206;-70
2022/12/21 05:06:39;;;;;;;131.53;41.53;;;;;;;;;;5097004;28;20176;-70
2022/12/21 05:09:05;;;;;;;133.67;40.00;;;;;;;;;;5078829;28;20184;-70
2022/12/21 05:11:33;;;;;;;127.03;40.07;;;;;;;;;;5078519;28;20212;-70
2022/12/21 05:13:59;;;;;;;137.37;40.27;;;;;;;;;;5078535;28;20250;-70
2022/12/21 05:16:25;;;;;;;134.37;40.80;;;;;;;;;;5097277;28;20181;-70
2022/12/21 05:18:52;;;;;;;142.43;41.80;;;;;;;;;;5097067;28;20516;-70
2022/12/21 05:21:18;;;;;;;141.93;43.33;;;;;;;;;;5078299;28;20312;-70
2022/12/21 05:23:44;;;;;;;124.80;40.60;;;;;;;;;;5078396;28;20594;-70
2022/12/21 05:26:11;;;;;;;120.60;39.37;;;;;;;;;;5096700;28;20180;-70
2022/12/21 05:28:38;;;;;;;103.13;36.23;;;;;;;;;;5097519;28;20569;-70
2022/12/21 05:31:04;;;;;;;104.40;36.50;;;;;;;;;;5078184;28;20247;-70
2022/12/21 05:33:30;;;;;;;81.20;30.63;;;;;;;;;;5096921;28;20173;-70
2022/12/21 05:35:56;;;;;;;94.43;32.70;;;;;;;;;;5096439;28;20649;-72
2022/12/21 05:38:22;;;;;;;89.80;28.43;;;;;;;;;;5077877;28;20260;-70
2022/12/21 05:40:48;;;;;;;80.07;27.60;;;;;;;;;;5096315;28;20181;-70
2022/12/21 05:43:15;;;;;;;75.10;26.97;;;;;;;;;;5096125;28;20181;-71
2022/12/21 05:45:41;;;;;;;79.23;29.33;;;;;;;;;;5077810;28;20219;-70
2022/12/21 05:48:07;;;;;;;89.57;30.90;;;;;;;;;;5096065;28;20313;-70
2022/12/21 05:50:33;;;;;;;87.73;30.70;;;;;;;;;;5077391;28;20321;-71
2022/12/21 05:52:59;;;;;;;89.73;30.67;;;;;;;;;;5095754;28;20169;-70
2022/12/21 05:55:25;;;;;;;91.60;32.27;;;;;;;;;;5095731;28;20179;-70
2022/12/21 05:57:51;;;;;;;87.67;30.03;;;;;;;;;;5077421;28;20629;-71
2022/12/21 06:00:17;;;;;;;86.23;31.20;;;;;;;;;;5095593;28;20184;-71
2022/12/21 06:02:43;;;;;;;82.93;30.27;;;;;;;;;;5095523;28;20244;-71
2022/12/21 06:05:09;;;;;;;97.73;31.87;;;;;;;;;;5077545;28;20184;-71
2022/12/21 06:07:35;;;;;;;99.47;32.10;;;;;;;;;;5095515;28;20179;-72
2022/12/21 06:10:01;;;;;;;91.40;30.43;;;;;;;;;;5095444;28;20576;-71
2022/12/21 06:12:30;;;;;;;87.63;29.40;;;;;;;;;;5095505;28;20189;-71
2022/12/21 06:14:56;;;;;;;98.93;31.47;;;;;;;;;;5095482;28;20256;-71
2022/12/21 06:17:22;;;;;;;101.10;32.20;;;;;;;;;;5095870;28;20209;-71
2022/12/21 06:19:48;;;;;;;99.47;32.17;;;;;;;;;;5098098;28;20184;-71
2022/12/21 06:22:14;;;;;;;92.60;31.13;;;;;;;;;;5095880;28;20211;-70
2022/12/21 06:24:40;;;;;;;99.77;31.90;;;;;;;;;;5095264;28;20173;-70
2022/12/21 06:27:06;;;;;;;107.13;31.13;;;;;;;;;;5077060;28;20192;-70
2022/12/21 06:29:32;;;;;;;95.50;31.07;;;;;;;;;;5095080;28;20177;-70
2022/12/21 06:31:59;;;;;;;98.63;33.20;;;;;;;;;;5076901;28;20193;-71
2022/12/21 06:34:25;;;;;;;103.40;32.93;;;;;;;;;;5076890;28;20181;-70
2022/12/21 06:36:51;;;;;;;99.27;31.73;;;;;;;;;;5095169;28;20180;-70
2022/12/21 06:39:17;;;;;;;94.47;32.63;;;;;;;;;;5095101;28;20185;-71
2022/12/21 06:41:43;;;;;;;99.47;32.70;;;;;;;;;;5095480;28;20208;-70
2022/12/21 06:44:09;;;;;;;90.53;32.17;;;;;;;;;;5076904;28;20177;-70
2022/12/21 06:46:35;;;;;;;94.33;31.43;;;;;;;;;;5076309;28;20234;-70
2022/12/21 06:49:01;;;;;;;119.80;46.83;;;;;;;;;;5095031;28;20547;-71
2022/12/21 06:51:27;;;;;;;115.17;40.53;;;;;;;;;;5094554;28;20295;-70
2022/12/21 06:53:54;;;;;;;120.87;32.20;;;;;;;;;;5095112;28;20165;-70
2022/12/21 06:56:21;;;;;;;98.50;30.97;;;;;;;;;;5094911;28;20513;-71
2022/12/21 06:58:48;;;;;;;99.47;30.67;;;;;;;;;;5094720;28;20260;-70
2022/12/21 07:01:19;;;;;;;97.60;27.80;;;;;;;;;;5076158;28;20217;-70
2022/12/21 07:03:45;;;;;;;99.73;29.20;;;;;;;;;;5076197;28;20185;-70
2022/12/21 07:06:13;;;;;;;95.30;28.17;;;;;;;;;;5094681;28;20267;-70
2022/12/21 07:08:39;;;;;;;94.63;27.13;;;;;;;;;;5076391;28;20559;-70
2022/12/21 07:11:06;;;;;;;91.70;29.27;;;;;;;;;;5095554;28;20696;-70
2022/12/21 07:13:34;;;;;;;87.73;30.00;;;;;;;;;;5077270;28;20183;-71
2022/12/21 07:16:00;;;;;;;106.17;30.10;;;;;;;;;;5094571;28;20224;-70
2022/12/21 07:18:26;;;;;;;127.23;32.37;;;;;;;;;;5076094;28;20177;-70
2022/12/21 07:20:56;;;;;;;105.90;32.60;;;;;;;;;;5076061;28;20181;-71
2022/12/21 07:23:22;;;;;;;110.30;32.97;;;;;;;;;;5094483;28;20588;-70
2022/12/21 07:25:48;;;;;;;97.57;34.53;;;;;;;;;;5094163;28;20176;-70
2022/12/21 07:28:14;;;;;;;108.50;32.87;;;;;;;;;;5094223;28;20255;-70
2022/12/21 07:30:40;;;;;;;101.73;31.23;;;;;;;;;;5075684;28;20345;-70
2022/12/21 07:33:06;;;;;;;109.00;37.13;;;;;;;;;;5075941;28;20188;-70
2022/12/21 07:35:33;;;;;;;128.13;53.23;;;;;;;;;;5075745;28;20174;-70
2022/12/21 07:37:59;;;;;;;125.57;52.10;;;;;;;;;;5093827;28;20173;-70
2022/12/21 07:40:25;;;;;;;130.60;55.53;;;;;;;;;;5094188;28;20656;-70
2022/12/21 07:42:51;;;;;;;116.77;42.80;;;;;;;;;;5094035;28;20268;-70
2022/12/21 07:45:18;;;;;;;116.70;44.23;;;;;;;;;;5075662;28;20279;-71
2022/12/21 07:47:44;;;;;;;103.77;37.67;;;;;;;;;;5093683;28;20656;-71
2022/12/21 07:50:10;;;;;;;108.77;37.77;;;;;;;;;;5093594;28;20201;-70
2022/12/21 07:52:36;;;;;;;109.17;36.77;;;;;;;;;;5093640;28;20193;-70
2022/12/21 07:55:02;;;;;;;106.63;37.77;;;;;;;;;;5075451;28;20192;-70
2022/12/21 07:57:29;;;;;;;100.17;33.23;;;;;;;;;;5092948;28;20222;-70
2022/12/21 07:59:54;;;;;;;78.70;30.97;;;;;;;;;;5093688;28;20181;-70
2022/12/21 08:02:21;;;;;;;84.43;28.60;;;;;;;;;;5093792;28;20285;-69
2022/12/21 08:04:47;;;;;;;79.53;28.10;;;;;;;;;;5078694;28;20185;-71
2022/12/21 08:07:13;;;;;;;96.63;28.60;;;;;;;;;;5093979;28;20184;-70
2022/12/21 08:09:39;;;;;;;88.97;29.30;;;;;;;;;;5094390;28;20207;-70
2022/12/21 08:12:05;;;;;;;83.60;28.67;;;;;;;;;;5093929;28;20201;-70
2022/12/21 08:14:31;;;;;;;80.43;27.93;;;;;;;;;;5075981;28;20267;-70
2022/12/21 08:16:57;;;;;;;78.57;27.17;;;;;;;;;;5093673;28;20213;-70
2022/12/21 08:19:23;;;;;;;84.03;27.07;;;;;;;;;;5093797;28;20177;-70
2022/12/21 08:21:49;;;;;;;74.33;25.50;;;;;;;;;;5075191;28;20552;-70
2022/12/21 08:24:14;;;;;;;83.60;26.27;;;;;;;;;;5075164;28;20234;-72
2022/12/21 08:26:40;;;;;;;80.10;26.43;;;;;;;;;;5075514;28;20177;-71
2022/12/21 08:29:07;;;;;;;80.07;25.30;;;;;;;;;;5075490;28;20184;-70
2022/12/21 08:31:33;;;;;;;67.57;22.97;;;;;;;;;;5093739;28;20265;-70
2022/12/21 08:33:59;;;;;;;79.87;25.47;;;;;;;;;;5075799;28;20262;-70
2022/12/21 08:36:25;;;;;;;83.37;25.63;;;;;;;;;;5094253;28;20177;-71
2022/12/21 08:38:53;;;;;;;77.27;25.70;;;;;;;;;;5093649;28;20264;-70
2022/12/21 08:41:19;;;;;;;84.77;27.40;;;;;;;;;;5093206;28;20223;-70
2022/12/21 08:43:45;;;;;;;90.50;26.23;;;;;;;;;;5093607;28;20583;-70
2022/12/21 08:46:12;;;;;;;85.50;27.57;;;;;;;;;;5093351;28;20200;-70
2022/12/21 08:48:38;;;;;;;95.43;27.43;;;;;;;;;;5075137;28;20244;-70
2022/12/21 08:51:04;;;;;;;105.53;29.37;;;;;;;;;;5075128;28;20303;-70
2022/12/21 08:53:31;;;;;;;89.63;28.40;;;;;;;;;;5075207;28;20177;-70
2022/12/21 08:55:57;;;;;;;92.87;29.30;;;;;;;;;;5077649;28;20184;-71
2022/12/21 08:58:24;;;;;;;89.80;28.17;;;;;;;;;;5093058;28;20633;-71
2022/12/21 09:00:53;;;;;;;99.93;27.47;;;;;;;;;;5092827;28;20223;-71
2022/12/21 09:03:19;;;;;;;91.33;27.17;;;;;;;;;;5075135;28;20181;-71
2022/12/21 09:05:45;;;;;;;82.17;26.63;;;;;;;;;;5074944;28;20173;-70
2022/12/21 09:08:12;;;;;;;78.40;29.13;;;;;;;;;;5094025;28;20642;-71
2022/12/21 09:10:38;;;;;;;81.23;28.00;;;;;;;;;;5096685;28;20681;-71
2022/12/21 09:13:04;;;;;;;88.87;26.00;;;;;;;;;;5078804;28;20177;-71
2022/12/21 09:15:30;;;;;;;78.87;25.83;;;;;;;;;;5078618;28;20177;-71
2022/12/21 09:17:56;;;;;;;73.97;25.20;;;;;;;;;;5078418;28;20178;-70
2022/12/21 09:20:22;;;;;;;76.83;26.17;;;;;;;;;;5078541;28;20185;-72
2022/12/21 09:22:48;;;;;;;76.83;25.67;;;;;;;;;;5078574;28;20197;-71
2022/12/21 09:25:14;;;;;;;73.10;25.50;;;;;;;;;;5078504;28;20188;-70
2022/12/21 09:27:40;;;;;;;73.93;25.50;;;;;;;;;;5078204;28;20641;-71
2022/12/21 09:30:07;;;;;;;80.83;27.03;;;;;;;;;;5096118;28;20208;-70
2022/12/21 09:32:33;;;;;;;84.20;28.33;;;;;;;;;;5077990;28;20193;-70
2022/12/21 09:34:59;;;;;;;88.27;29.33;;;;;;;;;;5077987;28;20208;-71
2022/12/21 09:37:25;;;;;;;93.93;31.43;;;;;;;;;;5078063;28;20181;-71
2022/12/21 09:39:51;;;;;;;97.37;31.40;;;;;;;;;;5096666;28;20585;-70
2022/12/21 09:42:20;;;;;;;100.50;32.03;;;;;;;;;;5078016;28;20197;-70
2022/12/21 09:44:52;;;;;;;105.40;30.87;;;;;;;;;;5096366;28;20176;-71
2022/12/21 09:47:20;;;;;;;109.53;33.53;;;;;;;;;;5078768;28;20205;-70
2022/12/21 09:49:58;;;;;;;107.33;36.57;;;;;;;;;;5096805;28;20234;-70
2022/12/21 09:52:30;;;;;;;116.60;36.70;;;;;;;;;;5078285;28;20715;-70
2022/12/21 09:55:04;;;;;;;119.60;38.87;;;;;;;;;;5096017;28;20184;-71
2022/12/21 09:57:32;;;;;;;110.50;38.97;;;;;;;;;;5078264;28;20166;-71
2022/12/21 09:59:58;;;;;;;110.07;36.40;;;;;;;;;;5096061;28;20269;-70
2022/12/21 10:02:45;;;;;;;116.70;39.90;;;;;;;;;;5095648;28;20295;-70
2022/12/21 10:05:17;;;;;;;106.70;37.10;;;;;;;;;;5047322;28;20221;-70
2022/12/21 10:08:05;;;;;;;116.97;39.30;;;;;;;;;;5095861;28;20181;-71
2022/12/21 10:10:39;;;;;;;119.57;39.07;;;;;;;;;;5095754;28;20665;-70
2022/12/21 10:13:24;;;;;;;120.90;41.43;;;;;;;;;;5095700;28;20234;-71
2022/12/21 10:16:00;;;;;;;120.57;44.20;;;;;;;;;;5077207;28;20209;-70
2022/12/21 10:18:37;;;;;;;116.50;41.60;;;;;;;;;;5095788;28;20632;-70
2022/12/21 10:21:18;;;;;;;116.83;42.67;;;;;;;;;;5094408;28;20193;-71
2022/12/21 10:23:51;;;;;;;112.77;42.97;;;;;;;;;;5095882;28;20238;-71
2022/12/21 10:26:19;;;;;;;111.23;43.73;;;;;;;;;;5077051;28;20185;-71
2022/12/21 10:29:03;;;;;;;125.20;43.30;;;;;;;;;;5095228;28;20174;-71
2022/12/21 10:31:34;;;;;;;102.10;40.97;;;;;;;;;;5095165;28;20217;-71
2022/12/21 10:34:01;;;;;;;96.87;38.57;;;;;;;;;;5095330;28;20633;-72
2022/12/21 10:36:37;;;;;;;84.23;37.37;;;;;;;;;;5095274;28;20177;-71
2022/12/21 10:39:04;;;;;;;88.90;31.73;;;;;;;;;;5078969;28;20177;-71
2022/12/21 10:41:33;;;;;;;82.57;34.60;;;;;;;;;;5095025;28;20624;-71
2022/12/21 10:44:00;;;;;;;74.00;30.67;;;;;;;;;;5095163;28;20177;-71
2022/12/21 10:46:30;;;;;;;82.67;31.20;;;;;;;;;;5094816;28;20189;-71
2022/12/21 10:48:59;;;;;;;76.00;32.60;;;;;;;;;;5094734;28;20187;-71
2022/12/21 10:51:32;;;;;;;70.03;30.97;;;;;;;;;;5076350;28;20216;-71
2022/12/21 10:54:08;;;;;;;63.63;30.07;;;;;;;;;;5094525;28;20178;-71
2022/12/21 10:56:36;;;;;;;65.20;30.50;;;;;;;;;;5076578;28;20266;-71
2022/12/21 10:59:22;;;;;;;65.13;27.43;;;;;;;;;;5094457;28;20667;-71
2022/12/21 11:01:48;;;;;;;54.80;25.30;;;;;;;;;;5094250;28;20220;-71
2022/12/21 11:04:26;;;;;;;53.13;27.00;;;;;;;;;;5095099;28;20680;-72
2022/12/21 11:07:04;;;;;;;54.33;23.37;;;;;;;;;;5076528;28;20169;-72
2022/12/21 11:09:36;;;;;;;38.10;19.23;;;;;;;;;;5076649;28;20556;-71
2022/12/21 11:12:21;;;;;;;44.03;17.73;;;;;;;;;;5076159;28;20211;-71
2022/12/21 11:14:47;;;;;;;36.57;17.87;;;;;;;;;;5094105;28;20173;-71
2022/12/21 11:17:17;;;;;;;34.30;15.33;;;;;;;;;;5094259;28;20169;-71
2022/12/21 11:19:42;;;;;;;33.27;14.87;;;;;;;;;;5076019;28;20225;-71
2022/12/21 11:22:09;;;;;;;28.73;15.17;;;;;;;;;;5094110;28;20554;-71
2022/12/21 11:24:38;;;;;;;24.90;13.53;;;;;;;;;;5094118;28;20256;-71
2022/12/21 11:27:15;;;;;;;25.97;13.13;;;;;;;;;;5094282;28;20248;-70
2022/12/21 11:30:10;;;;;;;24.53;12.33;;;;;;;;;;5095458;28;20169;-70
2022/12/21 11:32:42;;;;;;;31.33;14.27;;;;;;;;;;5062866;28;20209;-70
2022/12/21 11:35:17;;;;;;;27.20;13.23;;;;;;;;;;5093900;28;20162;-70
2022/12/21 11:37:47;;;;;;;23.50;12.20;;;;;;;;;;5094004;28;20160;-70
2022/12/21 11:40:16;;;;;;;29.37;13.90;;;;;;;;;;5093779;28;20173;-70
2022/12/21 11:43:00;;;;;;;27.50;14.40;;;;;;;;;;5076272;28;20568;-70
2022/12/21 11:45:29;;;;;;;29.20;14.23;;;;;;;;;;5094073;28;20275;-70
2022/12/21 11:48:04;;;;;;;28.23;13.77;;;;;;;;;;5107544;22;20347;-71
2022/12/21 11:50:40;;;;;;;24.07;13.10;;;;;;;;;;5075766;28;20223;-71
2022/12/21 11:53:12;;;;;;;21.13;13.23;;;;;;;;;;5075613;28;20177;-72
2022/12/21 11:55:50;;;;;;;28.07;13.10;;;;;;;;;;5075851;28;20247;-70
2022/12/21 11:58:38;;;;;;;27.90;13.40;;;;;;;;;;5075970;28;20231;-71
2022/12/21 12:01:04;;;;;;;20.30;12.40;;;;;;;;;;5094789;28;20196;-71
2022/12/21 12:03:36;;;;;;;25.97;13.17;;;;;;;;;;5095472;28;20181;-71
2022/12/21 12:06:08;;;;;;;21.50;13.13;;;;;;;;;;5095090;28;20199;-71
2022/12/21 12:08:54;;;;;;;26.90;12.40;;;;;;;;;;5094588;28;20200;-71
2022/12/21 12:11:35;;;;;;;22.77;13.37;;;;;;;;;;5095299;28;20225;-71
2022/12/21 12:14:20;;;;;;;27.27;12.83;;;;;;;;;;5094835;28;20554;-69
2022/12/21 12:16:56;;;;;;;19.50;11.87;;;;;;;;;;5094888;28;20655;-71
2022/12/21 12:19:28;;;;;;;21.23;11.60;;;;;;;;;;5094453;28;20254;-70
2022/12/21 12:21:58;;;;;;;22.83;11.43;;;;;;;;;;5075476;28;20268;-71
2022/12/21 12:24:26;;;;;;;19.80;11.47;;;;;;;;;;5075263;28;20556;-70
2022/12/21 12:26:55;;;;;;;19.83;11.30;;;;;;;;;;5093944;28;20181;-70
2022/12/21 12:29:25;;;;;;;23.53;11.10;;;;;;;;;;5093660;28;20279;-71
2022/12/21 12:31:57;;;;;;;27.30;13.90;;;;;;;;;;5075436;28;20205;-72
2022/12/21 12:34:40;;;;;;;23.20;12.53;;;;;;;;;;5076365;28;20177;-71
2022/12/21 12:37:31;;;;;;;20.07;10.90;;;;;;;;;;5093300;28;20158;-70
2022/12/21 12:39:57;;;;;;;23.50;11.07;;;;;;;;;;5093808;28;20189;-71
2022/12/21 12:42:29;;;;;;;20.40;11.47;;;;;;;;;;5093826;28;20648;-72
2022/12/21 12:45:15;;;;;;;21.43;10.70;;;;;;;;;;5096860;28;20161;-70
2022/12/21 12:48:04;;;;;;;18.07;10.27;;;;;;;;;;5097338;28;20217;-69
2022/12/21 12:50:39;;;;;;;16.83;10.20;;;;;;;;;;5071105;28;20213;-70
2022/12/21 12:53:05;;;;;;;18.47;10.43;;;;;;;;;;5078954;28;20180;-70
2022/12/21 12:55:35;;;;;;;20.63;10.20;;;;;;;;;;5097311;28;20629;-70
2022/12/21 12:58:10;;;;;;;22.33;9.63;;;;;;;;;;5078627;28;20193;-68
2022/12/21 13:00:56;;;;;;;15.60;10.53;;;;;;;;;;5097013;28;20244;-69
2022/12/21 13:03:41;;;;;;;19.50;10.57;;;;;;;;;;5048415;28;20288;-70
2022/12/21 13:06:17;;;;;;;22.63;11.00;;;;;;;;;;5096969;28;20176;-68
2022/12/21 13:08:58;;;;;;;16.53;10.00;;;;;;;;;;5078548;28;20204;-70
2022/12/21 13:11:33;;;;;;;21.80;10.73;;;;;;;;;;5078547;28;20741;-68
2022/12/21 13:14:02;;;;;;;18.77;9.07;;;;;;;;;;5096590;28;20184;-69
2022/12/21 13:16:41;;;;;;;17.57;9.53;;;;;;;;;;5096672;28;20177;-69
2022/12/21 13:19:09;;;;;;;16.70;9.07;;;;;;;;;;5097381;28;20200;-70
2022/12/21 13:21:37;;;;;;;14.67;7.30;;;;;;;;;;5096751;28;20204;-67
2022/12/21 13:24:05;;;;;;;17.90;7.60;;;;;;;;;;5096454;28;20243;-71
2022/12/21 13:26:36;;;;;;;15.57;6.87;;;;;;;;;;5096714;28;20174;-71
2022/12/21 13:29:02;;;;;;;11.43;7.23;;;;;;;;;;5096795;28;20215;-69
2022/12/21 13:31:35;;;;;;;15.97;5.83;;;;;;;;;;5096758;28;20653;-70
2022/12/21 13:34:02;;;;;;;15.17;6.57;;;;;;;;;;5096394;28;20165;-70
2022/12/21 13:36:35;;;;;;;16.97;6.53;;;;;;;;;;5096198;28;20173;-70
2022/12/21 13:39:10;;;;;;;15.10;6.50;;;;;;;;;;5096278;28;20193;-69
2022/12/21 13:41:38;;;;;;;15.97;6.63;;;;;;;;;;5096823;28;20265;-71
2022/12/21 13:44:04;;;;;;;15.53;6.47;;;;;;;;;;5078001;28;20184;-70
2022/12/21 13:46:32;;;;;;;14.63;6.73;;;;;;;;;;5096393;28;20695;-70
2022/12/21 13:48:58;;;;;;;12.57;6.80;;;;;;;;;;5077932;28;20752;-69
2022/12/21 13:51:48;;;;;;;13.70;7.03;;;;;;;;;;5095978;28;20281;-68
2022/12/21 13:54:17;;;;;;;9.17;6.30;;;;;;;;;;5095609;28;20157;-71
2022/12/21 13:56:43;;;;;;;12.47;5.93;;;;;;;;;;5077046;28;20188;-69
2022/12/21 13:59:19;;;;;;;15.23;6.60;;;;;;;;;;5077714;28;20204;-70
2022/12/21 14:01:58;;;;;;;9.57;5.73;;;;;;;;;;5096137;28;20161;-71
2022/12/21 14:04:43;;;;;;;13.03;6.27;;;;;;;;;;5077621;28;20631;-71
2022/12/21 14:07:28;;;;;;;7.80;5.60;;;;;;;;;;5095702;28;20246;-70
2022/12/21 14:09:54;;;;;;;11.27;5.10;;;;;;;;;;5095710;28;20184;-68
2022/12/21 14:12:21;;;;;;;11.53;5.33;;;;;;;;;;5095687;28;20178;-68
2022/12/21 14:15:05;;;;;;;9.03;5.13;;;;;;;;;;5095729;28;20250;-70
2022/12/21 14:17:33;;;;;;;12.00;5.33;;;;;;;;;;5077388;28;20292;-69
2022/12/21 14:19:59;;;;;;;8.90;5.10;;;;;;;;;;5095524;28;20181;-70
2022/12/21 14:22:34;;;;;;;8.60;5.37;;;;;;;;;;5095481;28;20177;-70
2022/12/21 14:25:01;;;;;;;7.83;5.17;;;;;;;;;;5077285;28;20193;-70
2022/12/21 14:27:27;;;;;;;9.53;5.53;;;;;;;;;;5077875;28;20208;-70
2022/12/21 14:30:03;;;;;;;9.40;4.73;;;;;;;;;;5077112;28;20181;-70
2022/12/21 14:32:29;;;;;;;8.80;4.97;;;;;;;;;;5095798;28;20171;-70
2022/12/21 14:35:00;;;;;;;11.93;5.50;;;;;;;;;;5095767;28;20177;-70
2022/12/21 14:37:36;;;;;;;9.93;5.40;;;;;;;;;;5076931;28;20232;-70
2022/12/21 14:40:02;;;;;;;11.33;6.70;;;;;;;;;;5077001;28;20625;-69
2022/12/21 14:42:36;;;;;;;9.57;6.03;;;;;;;;;;5076783;28;20188;-70
2022/12/21 14:45:11;;;;;;;8.60;6.00;;;;;;;;;;5076746;28;20267;-68
2022/12/21 14:47:41;;;;;;;11.27;6.60;;;;;;;;;;5094743;28;20217;-71
2022/12/21 14:50:19;;;;;;;11.40;6.83;;;;;;;;;;5076823;28;20204;-70